createdAt,value
2018-11-22T00:01:24.465Z,36.17
2018-11-22T00:06:49.513Z,38.37
2018-11-22T00:09:29.591Z,39.20
2018-11-22T00:12:09.984Z,36.20
2018-11-22T00:17:35.226Z,38.53
2018-11-22T00:20:15.440Z,37.43
2018-11-22T00:25:41.038Z,40.53
2018-11-22T00:31:06.210Z,36.87
2018-11-22T00:33:47.837Z,41.17
2018-11-22T00:39:13.305Z,37.87
2018-11-22T00:44:38.316Z,37.90
2018-11-22T00:50:03.460Z,41.13
2018-11-22T00:55:32.192Z,40.70
2018-11-22T01:00:56.955Z,41.73
2018-11-22T01:03:37.015Z,37.80
2018-11-22T01:09:02.571Z,39.77
2018-11-22T01:14:28.713Z,38.80
2018-11-22T01:19:53.986Z,37.60
2018-11-22T01:25:19.430Z,38.70
2018-11-22T01:27:59.895Z,37.77
2018-11-22T01:30:39.985Z,40.90
2018-11-22T01:33:20.386Z,41.23
2018-11-22T01:38:45.791Z,37.37
2018-11-22T01:44:10.774Z,37.63
2018-11-22T01:49:35.576Z,38.03
2018-11-22T01:52:15.772Z,42.40
2018-11-22T01:54:56.037Z,37.00
2018-11-22T02:00:21.342Z,36.67
2018-11-22T02:05:46.576Z,39.70
2018-11-22T02:11:12.079Z,40.47
2018-11-22T02:16:36.997Z,34.30
2018-11-22T02:19:17.797Z,38.77
2018-11-22T02:21:57.967Z,42.93
2018-11-22T02:24:38.896Z,38.17
2018-11-22T02:27:19.129Z,37.50
2018-11-22T02:32:44.896Z,38.03
2018-11-22T02:38:10.109Z,35.80
2018-11-22T02:40:51.609Z,37.80
2018-11-22T02:43:32.028Z,35.33
2018-11-22T02:46:12.665Z,35.60
2018-11-22T02:51:38.371Z,33.50
2018-11-22T02:54:18.718Z,34.83
2018-11-22T02:56:59.334Z,37.33
2018-11-22T02:59:39.481Z,38.00
2018-11-22T03:05:04.267Z,36.37
2018-11-22T03:10:29.079Z,32.23
2018-11-22T03:13:09.320Z,33.67
2018-11-22T03:15:49.327Z,33.30
2018-11-22T03:18:29.891Z,35.33
2018-11-22T03:21:10.005Z,36.10
2018-11-22T03:26:34.782Z,35.63
2018-11-22T03:29:15.074Z,38.07
2018-11-22T03:31:55.346Z,39.20
2018-11-22T03:37:20.250Z,35.07
2018-11-22T03:42:45.384Z,32.70
2018-11-22T03:45:26.146Z,35.90
2018-11-22T03:48:07.418Z,42.47
2018-11-22T03:50:47.446Z,40.03
2018-11-22T03:53:27.806Z,40.97
2018-11-22T03:56:07.912Z,46.20
2018-11-22T03:58:48.733Z,47.07
2018-11-22T04:01:29.448Z,42.90
2018-11-22T04:06:54.455Z,45.20
2018-11-22T04:12:19.655Z,48.20
2018-11-22T04:17:45.157Z,47.73
2018-11-22T04:20:26.920Z,47.03
2018-11-22T04:23:07.191Z,51.53
2018-11-22T04:25:47.377Z,47.77
2018-11-22T04:28:27.787Z,47.23
2018-11-22T04:33:53.027Z,50.27
2018-11-22T04:39:18.204Z,50.63
2018-11-22T04:44:42.985Z,48.87
2018-11-22T04:50:08.305Z,49.13
2018-11-22T12:15:59.241Z,42.17
2018-11-22T12:18:26.787Z,45.40
2018-11-22T12:20:54.514Z,46.70
2018-11-22T12:23:22.065Z,44.37
2018-11-22T12:25:49.590Z,40.00
2018-11-22T12:28:17.204Z,39.53
2018-11-22T12:30:44.726Z,40.33
2018-11-22T12:33:19.624Z,41.10
2018-11-22T12:35:54.350Z,39.73
2018-11-22T12:38:27.528Z,43.47
2018-11-22T12:40:55.108Z,41.70
2018-11-22T12:43:22.784Z,40.37
2018-11-22T12:45:50.289Z,41.53
2018-11-22T12:48:17.992Z,39.30
2018-11-22T12:50:45.506Z,39.00
2018-11-22T12:53:13.152Z,41.33
2018-11-22T12:55:40.714Z,37.43
2018-11-22T12:58:08.374Z,40.03
2018-11-22T13:00:35.934Z,41.00
2018-11-22T13:03:03.659Z,43.37
2018-11-22T13:05:31.218Z,40.43
2018-11-22T13:07:58.719Z,41.87
2018-11-22T13:10:26.344Z,42.60
2018-11-22T13:12:53.901Z,38.03
2018-11-22T13:15:22.057Z,43.30
2018-11-22T13:17:49.597Z,41.90
2018-11-22T13:20:18.616Z,37.77
2018-11-22T13:22:46.156Z,40.27
2018-11-22T13:25:15.269Z,40.53
2018-11-22T13:27:43.030Z,42.60
2018-11-22T13:30:14.301Z,40.83
2018-11-22T13:32:42.344Z,42.10
2018-11-22T13:35:10.893Z,41.00
2018-11-22T13:37:38.737Z,38.87
2018-11-22T13:40:08.114Z,37.93
2018-11-22T13:42:35.775Z,38.30
2018-11-22T13:45:07.973Z,37.43
2018-11-22T13:47:35.673Z,42.60
2018-11-22T13:50:03.973Z,39.73
2018-11-22T13:52:37.148Z,41.50
2018-11-22T13:54:59.110Z,42.23
2018-11-22T13:57:26.813Z,39.30
2018-11-22T13:59:58.181Z,40.90
2018-11-22T14:02:21.962Z,40.40
2018-11-22T14:04:49.474Z,38.73
2018-11-22T14:07:17.124Z,41.47
2018-11-22T14:09:44.657Z,42.13
2018-11-22T14:12:12.266Z,40.87
2018-11-22T14:14:40.053Z,45.07
2018-11-22T14:17:07.630Z,41.17
2018-11-22T14:19:35.296Z,42.70
2018-11-22T14:22:02.844Z,39.93
2018-11-22T14:24:30.405Z,38.77
2018-11-22T14:26:58.004Z,43.23
2018-11-22T14:29:25.499Z,40.77
2018-11-22T14:31:53.177Z,42.17
2018-11-22T14:34:20.719Z,45.40
2018-11-22T14:36:48.282Z,41.57
2018-11-22T14:39:15.836Z,40.03
2018-11-22T14:41:43.424Z,39.30
2018-11-22T14:44:10.949Z,40.47
2018-11-22T14:46:38.472Z,39.20
2018-11-22T14:49:06.192Z,42.43
2018-11-22T14:51:38.929Z,41.60
2018-11-22T14:54:06.613Z,39.80
2018-11-22T14:56:34.141Z,39.50
2018-11-22T14:59:01.664Z,39.43
2018-11-22T15:01:29.204Z,41.33
2018-11-22T15:03:56.728Z,40.27
2018-11-22T15:06:24.325Z,41.80
2018-11-22T15:08:51.846Z,44.83
2018-11-22T15:11:19.525Z,40.97
2018-11-22T15:13:47.067Z,41.63
2018-11-22T15:16:14.713Z,41.83
2018-11-22T15:18:42.229Z,44.87
2018-11-22T15:21:09.834Z,41.90
2018-11-22T15:23:37.538Z,41.80
2018-11-22T15:26:05.148Z,40.10
2018-11-22T15:28:32.719Z,42.67
2018-11-22T15:31:00.414Z,44.60
2018-11-22T15:33:27.956Z,42.87
2018-11-22T15:35:55.501Z,41.23
2018-11-22T15:38:23.147Z,39.07
2018-11-22T15:40:50.722Z,40.73
2018-11-22T15:43:18.400Z,42.27
2018-11-22T15:45:45.924Z,41.50
2018-11-22T15:48:13.493Z,40.03
2018-11-22T15:50:41.125Z,41.00
2018-11-22T15:53:09.656Z,43.40
2018-11-22T15:55:37.261Z,41.57
2018-11-22T15:58:05.465Z,39.80
2018-11-22T16:00:33.792Z,42.37
2018-11-22T16:03:01.940Z,39.80
2018-11-22T16:05:29.949Z,42.23
2018-11-22T16:07:57.472Z,41.73
2018-11-22T16:10:27.225Z,40.07
2018-11-22T16:12:56.499Z,41.97
2018-11-22T16:15:26.194Z,38.70
2018-11-22T16:17:53.832Z,41.93
2018-11-22T16:20:21.355Z,42.83
2018-11-22T16:22:48.920Z,41.40
2018-11-22T16:25:16.612Z,42.53
2018-11-22T16:27:44.174Z,41.23
2018-11-22T16:30:15.355Z,39.60
2018-11-22T16:32:43.222Z,44.63
2018-11-22T16:35:12.433Z,39.60
2018-11-22T16:37:40.083Z,40.97
2018-11-22T16:40:09.897Z,45.30
2018-11-22T16:42:38.053Z,41.70
2018-11-22T16:45:11.032Z,41.37
2018-11-22T16:47:38.567Z,40.80
2018-11-22T16:50:07.316Z,41.40
2018-11-22T16:52:34.844Z,41.87
2018-11-22T16:55:02.369Z,40.83
2018-11-22T16:57:30.047Z,42.97
2018-11-22T16:59:57.633Z,43.97
2018-11-22T17:02:25.244Z,43.50
2018-11-22T17:04:52.778Z,41.30
2018-11-22T17:07:20.487Z,44.70
2018-11-22T17:09:48.019Z,42.77
2018-11-22T17:12:15.607Z,42.57
2018-11-22T17:14:43.165Z,43.73
2018-11-22T17:17:10.854Z,46.10
2018-11-22T17:19:38.388Z,41.83
2018-11-22T17:22:05.925Z,42.10
2018-11-22T17:24:33.453Z,42.03
2018-11-22T17:27:01.115Z,42.17
2018-11-22T17:29:28.787Z,41.73
2018-11-22T17:31:56.300Z,44.17
2018-11-22T17:34:23.974Z,43.63
2018-11-22T17:36:51.546Z,42.70
2018-11-22T17:39:19.092Z,45.07
2018-11-22T17:41:46.648Z,44.43
2018-11-22T17:44:14.355Z,43.80
2018-11-22T17:46:41.904Z,41.03
2018-11-22T17:49:09.604Z,39.83
2018-11-22T17:51:37.128Z,42.37
2018-11-22T17:54:05.417Z,45.50
2018-11-22T17:56:33.037Z,44.63
2018-11-22T17:59:00.591Z,41.97
2018-11-22T18:01:28.285Z,39.07
2018-11-22T18:03:55.822Z,41.93
2018-11-22T18:06:23.437Z,39.47
2018-11-22T18:08:50.987Z,42.83
2018-11-22T18:11:18.532Z,41.10
2018-11-22T18:13:46.125Z,40.63
2018-11-22T18:16:13.741Z,42.20
2018-11-22T18:18:41.439Z,41.20
2018-11-22T18:21:08.973Z,39.37
2018-11-22T18:23:36.794Z,40.77
2018-11-22T18:26:04.908Z,41.43
2018-11-22T18:28:32.489Z,43.07
2018-11-22T18:31:00.073Z,44.80
2018-11-22T18:33:27.772Z,41.27
2018-11-22T18:35:55.340Z,39.93
2018-11-22T18:38:23.028Z,42.57
2018-11-22T18:40:50.879Z,39.77
2018-11-22T18:43:18.513Z,41.90
2018-11-22T18:45:46.885Z,40.23
2018-11-22T18:48:15.702Z,39.73
2018-11-22T18:50:43.694Z,41.97
2018-11-22T18:53:11.506Z,44.93
2018-11-22T18:55:39.049Z,43.33
2018-11-22T18:58:06.781Z,43.20
2018-11-22T19:00:35.764Z,42.67
2018-11-22T19:03:05.312Z,39.47
2018-11-22T19:05:32.891Z,42.30
2018-11-22T19:08:00.801Z,39.83
2018-11-22T19:10:29.687Z,39.67
2018-11-22T19:12:59.696Z,40.63
2018-11-22T19:15:28.513Z,38.33
2018-11-22T19:17:56.064Z,36.77
2018-11-22T19:20:30.101Z,39.13
2018-11-22T19:22:58.288Z,42.80
2018-11-22T19:25:25.839Z,42.47
2018-11-22T19:27:53.864Z,38.20
2018-11-22T19:30:25.768Z,36.90
2018-11-22T19:32:54.477Z,40.53
2018-11-22T19:35:23.564Z,38.57
2018-11-22T19:37:51.370Z,37.80
2018-11-22T19:40:23.116Z,36.20
2018-11-22T19:42:51.977Z,37.57
2018-11-22T19:45:20.885Z,37.13
2018-11-22T19:47:48.838Z,39.57
2018-11-22T19:50:17.940Z,35.80
2018-11-22T19:52:46.221Z,33.60
2018-11-22T19:55:15.500Z,34.60
2018-11-22T19:57:44.179Z,40.43
2018-11-22T20:00:12.777Z,36.60
2018-11-22T20:02:41.060Z,37.57
2018-11-22T20:05:10.279Z,43.23
2018-11-22T20:07:37.834Z,39.97
2018-11-22T20:10:08.253Z,33.23
2018-11-22T20:12:35.838Z,37.27
2018-11-22T20:15:03.755Z,36.70
2018-11-22T20:17:31.269Z,36.43
2018-11-22T20:19:58.809Z,36.30
2018-11-22T20:22:26.357Z,35.77
2018-11-22T20:24:53.886Z,39.03
2018-11-22T20:29:51.298Z,37.93
2018-11-22T20:32:18.875Z,38.50
2018-11-22T20:34:46.498Z,36.70
2018-11-22T20:37:14.029Z,35.83
2018-11-22T20:39:41.579Z,35.23
2018-11-22T20:42:09.196Z,36.27
2018-11-22T20:44:36.745Z,36.27
2018-11-22T20:47:04.448Z,34.70
2018-11-22T20:49:32.000Z,40.57
2018-11-22T20:51:59.574Z,35.37
2018-11-22T20:54:27.167Z,34.43
2018-11-22T20:56:54.787Z,34.97
2018-11-22T20:59:22.447Z,33.47
2018-11-22T21:01:51.749Z,34.73
2018-11-22T21:04:17.744Z,31.67
2018-11-22T21:06:45.273Z,32.03
2018-11-22T21:09:12.850Z,37.20
2018-11-22T21:11:43.483Z,38.57
2018-11-22T21:14:08.622Z,41.43
2018-11-22T21:16:36.313Z,38.70
2018-11-22T21:19:03.848Z,37.57
2018-11-22T21:21:31.461Z,33.33
2018-11-22T21:23:59.129Z,33.70
2018-11-22T21:26:26.713Z,31.87
2018-11-22T21:28:54.470Z,33.30
2018-11-22T21:31:22.037Z,32.13
2018-11-22T21:33:49.596Z,35.83
2018-11-22T21:36:17.244Z,30.57
2018-11-22T21:38:44.801Z,33.27
2018-11-22T21:41:12.453Z,32.50
2018-11-22T21:43:40.019Z,30.73
2018-11-22T21:46:07.632Z,30.17
2018-11-22T21:48:35.292Z,30.33
2018-11-22T21:51:02.828Z,31.43
2018-11-22T21:53:30.357Z,28.80
2018-11-22T21:55:58.257Z,35.93
2018-11-22T21:58:25.769Z,30.00
2018-11-22T22:00:53.416Z,29.67
2018-11-22T22:03:20.940Z,28.40
2018-11-22T22:05:48.486Z,28.40
2018-11-22T22:08:16.117Z,29.90
2018-11-22T22:10:43.818Z,29.73
2018-11-22T22:13:11.534Z,27.90
2018-11-22T22:15:39.124Z,28.97
2018-11-22T22:18:07.559Z,26.17
2018-11-22T22:20:35.900Z,30.20
2018-11-22T22:23:03.475Z,28.63
2018-11-22T22:25:31.224Z,36.50
2018-11-22T22:27:59.285Z,29.63
2018-11-22T22:30:28.249Z,26.70
2018-11-22T22:32:57.178Z,27.70
2018-11-22T22:35:24.766Z,26.70
2018-11-22T22:37:52.462Z,29.00
2018-11-22T22:40:24.894Z,28.17
2018-11-22T22:42:53.689Z,28.47
2018-11-22T22:45:22.456Z,29.03
2018-11-22T22:47:50.511Z,25.90
2018-11-22T22:50:19.491Z,30.17
2018-11-22T22:52:48.112Z,28.97
2018-11-22T22:55:15.645Z,26.23
2018-11-22T22:57:43.536Z,28.97
2018-11-22T23:00:20.316Z,27.27
2018-11-22T23:02:49.307Z,26.77
2018-11-22T23:05:16.983Z,27.80
2018-11-22T23:07:44.593Z,25.27
2018-11-22T23:10:12.319Z,25.83
2018-11-22T23:12:39.882Z,28.30
2018-11-22T23:15:09.772Z,26.93
2018-11-22T23:17:37.856Z,26.40
2018-11-22T23:20:07.755Z,29.40
2018-11-22T23:22:35.336Z,29.50
2018-11-22T23:25:03.187Z,27.50
2018-11-22T23:27:31.278Z,27.30
2018-11-22T23:29:58.925Z,29.53
2018-11-22T23:32:26.645Z,28.37
2018-11-22T23:34:54.323Z,30.67
2018-11-22T23:37:22.332Z,26.67
2018-11-22T23:39:50.011Z,27.77
2018-11-22T23:42:17.599Z,28.80
2018-11-22T23:44:45.229Z,25.67
2018-11-22T23:47:12.801Z,25.70
2018-11-22T23:49:40.412Z,27.63
2018-11-22T23:52:08.014Z,27.87
2018-11-22T23:54:35.613Z,27.83
2018-11-22T23:57:03.185Z,26.77
2018-11-22T23:59:30.776Z,26.83
